Station info - map view · info · telemetry · weather · raw · status · beacons · messages · bulletins · browse · moving · my account
Callsign, ship name or locator: Clear       
It is possible to search using wildcards (*?) after a prefix. Example: OH*
APRS station N5TIT-9 - show graphs
Map loading...
Comment: Stormchasing Today !SN!
Mic-E message: En route
Location: 33°25.31' N 96°37.11' W - locator EM13QK51SF - show map - static map
2.4 miles West bearing 271° from Van Alstyne, Grayson County, Texas, United States [?]
6.0 miles South bearing 183° from Howe, Grayson County, Texas, United States
45.4 miles North bearing 14° from Dallas, Dallas County, Texas, United States
63.0 miles Northeast bearing 40° from Fort Worth, Tarrant County, Texas, United States
Last position: 2018-09-07 18:37:18 EDT (16d 22h17m ago)
2018-09-07 17:37:18 CDT local time at Van Alstyne, United States [?]
Altitude: 712 ft
Course: 269°
Speed: 55 MPH
Device: Kenwood: TM-D710 (rig)
Last path: N5TIT-9>SS2U3Q via WIDE1*,WIDE2-1,qAR,W5NGU-3 (good)
Positions stored: 36582
Other SSIDs: N5TIT-5
Stations near current position of N5TIT-9 - show more
callsign distance last heard - EDT      callsign distance last heard - EDT
EW19651.6 miles 334°2018-09-24 16:49:53 KD5HQF-105.5 miles 2°2018-09-24 16:52:44
EW30675.7 miles 314°2018-09-24 16:46:13 FW09766.4 miles 159°2018-09-24 16:52:14
KG5SKI B6.4 miles 141°2018-09-24 13:57:45 KG5SKI-B6.4 miles 141°2018-09-24 13:57:55
KG5SKI6.4 miles 141°2018-09-24 13:44:25 N5GI6.5 miles 307°2018-09-18 04:38:00
CW60437.1 miles 252°2018-09-24 16:53:49 KE5VBO-17.8 miles 199°2018-09-24 16:39:24
N3BBQ-99.6 miles 111°2018-08-31 18:37:35 W5MRC-159.9 miles 165°2018-09-24 16:53:06
KF5IPP10.1 miles 46°2018-09-11 22:34:37 K5NKL B10.1 miles 233°2018-09-24 16:39:00
K5NKL-B10.1 miles 233°2018-09-24 16:39:10 AG5AZ-910.6 miles 17°2018-09-14 09:27:40
AE5PL-1011.8 miles 155°2018-09-24 16:45:12 AE5PL-3211.8 miles 155°2018-08-29 07:34:26
AE5PL11.8 miles 155°2018-09-24 16:50:57 AE5PL-SA11.8 miles 155°2018-09-24 16:35:50
Stations which heard N5TIT-9 directly on radio –
callsign pkts first heard - EDT last heard longest (tx => rx) longest at - EDT
AE5PL-10 18 2018-09-03 09:26:06 2018-09-07 18:32:03 EM23AO > EM13RG 39.1 miles 233° 2018-09-03 20:07:07
KD5UMO-1 3 2018-09-03 20:59:03 2018-09-07 17:37:31 EM13QD > EM13PC 4.9 miles 225° 2018-09-03 20:59:03
KK5I-4 7 2018-09-03 15:26:29 2018-09-03 16:00:20 EM24OR > EM25JU 79.0 miles 345° 2018-09-03 16:00:20
W5NGU-3 3 2018-09-03 09:46:50 2018-09-07 18:20:00 EM13QM > EM13KF 36.5 miles 235° 2018-09-03 09:46:50
N5THR-11 53 2018-09-03 15:41:50 2018-09-03 19:03:18 EM24NS > EM24TC 55.7 miles 146° 2018-09-03 15:41:50
HOTSPR 11 2018-09-03 16:38:38 2018-09-03 17:08:04 EM24TQ > EM34LM 74.3 miles 99° 2018-09-03 16:41:56
W5NGU-4 3 2018-09-03 09:36:51 2018-09-03 09:42:50 EM13RJ > EM13HL 48.5 miles 278° 2018-09-03 09:36:51
MTIDA 7 2018-09-03 16:18:44 2018-09-03 17:53:40 EM24QQ > EM34EL 60.0 miles 103° 2018-09-03 16:18:44
CLRWTR 1 2018-09-03 15:40:21 2018-09-03 15:40:21 EM24NS > EM26UD 100.1 miles 21° 2018-09-03 15:40:21
K5UTD 34 2018-09-03 08:58:31 2018-09-07 17:57:53 EM13QI > EM12OX 25.8 miles 201° 2018-09-03 09:32:50
KF5OEB-1 22 2018-09-03 09:48:51 2018-09-03 20:17:14 EM23AO > EM13QQ 38.1 miles 278° 2018-09-03 20:05:08
N5YSQ 5 2018-09-03 19:26:45 2018-09-03 19:43:11 EM23HS > EM23FP 12.4 miles 226° 2018-09-03 19:26:45
AF5WO-10 20 2018-09-03 10:08:14 2018-09-03 20:03:07 EM13RT > EM23DP 51.6 miles 102° 2018-09-03 10:21:12
NASHVL 24 2018-09-03 15:42:31 2018-09-03 18:25:41 EM24NS > EM34BA 76.6 miles 131° 2018-09-03 15:42:31
W5KVV 15 2018-09-03 12:06:47 2018-09-03 14:29:10 EM24BS > EM24DU 11.4 miles 53° 2018-09-03 12:06:47
W5YYA-10 8 2018-09-03 09:38:50 2018-09-03 20:36:15 EM13XO > EM13UJ 18.6 miles 221° 2018-09-03 20:11:07
SHADY 2 2018-09-03 14:46:43 2018-09-03 15:40:52 EM24NS > EM25CA 52.3 miles 290° 2018-09-03 15:40:52

Only position packets which were originated by the station are shown here. The range statistics show some extra long hops, because some digipeaters do not correctly add themselves to the digipeater path. Please check the raw packets.
About this site
This page shows real-time information collected from the Automatic Position Reporting System Internet network (APRS-IS). APRS is used by amateur (ham) radio operators to transmit real-time position information, weather data, telemetry and messages over the radio. A vehicle equipped with a GPS receiver, a VHF transmitter or HF transceiver and a small computer device called a tracker transmits it's location, speed and course in a small data packet, which is then received by a nearby iGate receiving site which forwards the packet on the Internet. Systems connected to the Internet can send information on the APRS-IS without a radio transmitter, or collect and display information transmitted anywhere in the world.
FAQ · Blog · Discussion group · Linking to aprs.fi · AIS sites · Service status · Database statistics · Advertising on aprs.fi · Technical details · API · Change log · Planned changes · Credits and thanks · Terms Of Service · iPhone/iPad APRS